Circle Line Brooklyn — WDE8160 — position and weather

sailwx.info

Track history (hours):
 
Tides and Currents Weather Stations Pressure Air Temp Water Temp Dewpoint Dewpoint Depression Visibility Wind Speed Wind Dir Waves Ship Positions

Circle Line Brooklyn

Owner: Circle Line Sight Seeing Yachts Inc., New York, NY. More information available from US FCC via Universal Licensing System and Coast Guard Vessel Documentation Center.

Last reported at 2015-Jul-06 00:33 UTC. Time now 2015-Jul-06 09:16 UTC.
Position N 40°43' W 074°02'.

MMSI: 367402250.

Date/timePositionNaut miles runAvg speedWind from/ knotsBaromVisibWave heightAir tempDewpointWater temp
2015-Jul-06 00:33N 40°43' W 074°02'2 1.7
2015-Jul-05 23:34N 40°42' W 073°59'3 3.4
2015-Jul-05 22:33N 40°46' W 074°00'0 0.0
2015-Jul-05 21:33N 40°46' W 074°00'0 0.0
2015-Jul-05 20:33N 40°46' W 074°00'2 1.5
2015-Jul-05 19:07N 40°46' W 073°57'610.2
2015-Jul-05 18:33N 40°41' W 074°02'5 4.6
2015-Jul-05 17:31N 40°46' W 074°00'0 0.0
2015-Jul-05 16:31N 40°46' W 074°00'5 2.6
2015-Jul-05 14:33N 40°41' W 074°03'5 4.7
2015-Jul-05 13:30N 40°46' W 074°00'0 0.0
2015-Jul-05 03:23N 40°46' W 074°00'3 4.1
2015-Jul-05 02:33N 40°43' W 074°01'3 2.8
2015-Jul-05 01:33N 40°44' W 073°58'0 0.0
2015-Jul-05 00:33N 40°44' W 073°58'0 0.0
2015-Jul-04 23:33N 40°44' W 073°58'1 0.5
2015-Jul-04 22:33N 40°43' W 073°58'4 4.0
2015-Jul-04 21:33N 40°41' W 074°03'5 4.9
2015-Jul-04 20:32N 40°46' W 074°00'0 0.0
2015-Jul-04 19:32N 40°46' W 074°00'0 0.0
2015-Jul-04 18:32N 40°46' W 074°00'0 0.0
2015-Jul-04 17:32N 40°46' W 074°00'0 0.0
2015-Jul-04 16:33N 40°46' W 074°00'5 5.0
2015-Jul-04 15:33N 40°41' W 074°03'5 4.8
2015-Jul-04 14:31N 40°46' W 074°00'0 0.0
2015-Jul-04 04:09N 40°46' W 074°00'3 5.8
2015-Jul-04 03:34N 40°43' W 074°01'1 1.1
2015-Jul-04 02:34N 40°42' W 074°02'4 4.4
2015-Jul-04 01:33N 40°46' W 074°00'0 0.0
2015-Jul-04 00:33N 40°46' W 074°00'0 0.0
2015-Jul-03 23:27N 40°46' W 074°00'0 0.0
2015-Jul-03 22:33N 40°46' W 074°00'0 0.0
2015-Jul-03 21:33N 40°46' W 074°00'0 0.0
2015-Jul-03 20:33N 40°46' W 074°00'1 1.4
2015-Jul-03 19:33N 40°45' W 074°01'1 1.4
2015-Jul-03 18:34N 40°46' W 074°00'0 0.0
2015-Jul-03 17:31N 40°46' W 074°00'1 0.7
2015-Jul-03 16:34N 40°45' W 074°01'4 4.4
2015-Jul-03 15:33N 40°41' W 074°03'5 4.9
2015-Jul-03 14:31N 40°46' W 074°00'0 0.0
2015-Jul-03 13:28N 40°46' W 074°00'3 0.2
2015-Jul-03 00:33N 40°43' W 074°02'2 2.4
2015-Jul-02 23:33N 40°43' W 073°58'3 3.4
2015-Jul-02 22:32N 40°46' W 074°00'0 0.0
2015-Jul-02 21:32N 40°46' W 074°00'2 2.5
2015-Jul-02 20:33N 40°44' W 073°58'2 2.4
2015-Jul-02 19:33N 40°46' W 074°00'1 1.0
2015-Jul-02 18:34N 40°45' W 074°01'4 4.0
2015-Jul-02 17:34N 40°41' W 074°02'5 4.8
2015-Jul-02 16:31N 40°46' W 074°00'0 0.1
2015-Jul-02 15:34N 40°46' W 074°00'0 0.0
2015-Jun-30 20:32N 40°46' W 074°00'4 3.9
2015-Jun-30 19:27N 40°49' W 073°56'910.1
2015-Jun-30 18:33N 40°41' W 074°03'5 5.1
2015-Jun-30 17:34N 40°46' W 074°00'0 0.0
2015-Jun-30 16:34N 40°46' W 074°00'2 1.5
2015-Jun-30 15:09N 40°46' W 073°57'610.1
2015-Jun-30 14:33N 40°41' W 074°03'5 4.8
2015-Jun-30 13:30N 40°46' W 074°00'1 0.0
2015-Jun-29 21:34N 40°45' W 074°01'1 0.8
2015-Jun-29 20:33N 40°46' W 074°00'0 0.0
2015-Jun-29 19:31N 40°46' W 074°00'0 0.0
2015-Jun-29 18:33N 40°46' W 074°00'2 1.7
2015-Jun-29 17:10N 40°46' W 073°57'610.3
2015-Jun-29 16:33N 40°41' W 074°03'5 4.7
2015-Jun-29 15:31N 40°46' W 074°00'5 5.1
2015-Jun-29 14:33N 40°41' W 074°03'5 4.9
2015-Jun-29 13:33N 40°46' W 074°00'3 0.2
2015-Jun-29 00:33N 40°43' W 074°01'2 1.6
2015-Jun-28 23:34N 40°42' W 073°60'4 3.5
2015-Jun-28 22:32N 40°46' W 074°00'0 0.0
2015-Jun-28 21:29N 40°46' W 074°00'3 3.6
2015-Jun-28 20:33N 40°43' W 073°59'3 3.4
2015-Jun-28 19:33N 40°46' W 074°00'0 0.0
2015-Jun-28 18:33N 40°46' W 074°00'5 4.7
2015-Jun-28 17:33N 40°41' W 074°02'5 0.4
2015-Jun-28 05:04N 40°46' W 074°00'0 0.0
2015-Jun-28 04:33N 40°46' W 074°00'1 1.1
2015-Jun-28 03:33N 40°45' W 074°01'3 2.7
2015-Jun-28 02:34N 40°42' W 073°59'2 2.3
2015-Jun-28 01:33N 40°44' W 074°01'2 1.8
2015-Jun-28 00:32N 40°46' W 074°00'0 0.0
2015-Jun-27 23:32N 40°46' W 074°00'0 0.0
2015-Jun-27 22:32N 40°46' W 074°00'0 0.0
2015-Jun-27 21:32N 40°46' W 074°00'0 0.0
2015-Jun-27 20:33N 40°46' W 074°00'6 5.3
2015-Jun-27 19:28N 40°50' W 073°56'1011.2
2015-Jun-27 18:33N 40°41' W 074°02'5 4.6
2015-Jun-27 17:32N 40°46' W 074°00'0 0.0
2015-Jun-27 16:32N 40°46' W 074°00'3 2.5
2015-Jun-27 15:15N 40°47' W 073°56'710.7
2015-Jun-27 14:33N 40°41' W 074°02'5 4.4
2015-Jun-27 13:28N 40°46' W 074°00'0 0.0
2015-Jun-26 01:31N 40°46' W 074°00'2 2.5
2015-Jun-26 00:34N 40°44' W 074°01'  
Track history (hours):
 
Tides and Currents Weather Stations Pressure Air Temp Water Temp Dewpoint Dewpoint Depression Visibility Wind Speed Wind Dir Waves Ship Positions

Circle Line Brooklyn

Owner: Circle Line Sight Seeing Yachts Inc., New York, NY. More information available from US FCC via Universal Licensing System and Coast Guard Vessel Documentation Center.

Last reported at 2015-Jul-06 00:33 UTC. Time now 2015-Jul-06 09:16 UTC.
Position N 40°43' W 074°02'.

MMSI: 367402250.

Date/timePositionNaut miles runAvg speedWind from/ knotsBaromVisibWave heightAir tempDewpointWater temp
2015-Jul-06 00:33N 40°43' W 074°02'2 1.7
2015-Jul-05 23:34N 40°42' W 073°59'3 3.4
2015-Jul-05 22:33N 40°46' W 074°00'0 0.0
2015-Jul-05 21:33N 40°46' W 074°00'0 0.0
2015-Jul-05 20:33N 40°46' W 074°00'2 1.5
2015-Jul-05 19:07N 40°46' W 073°57'610.2
2015-Jul-05 18:33N 40°41' W 074°02'5 4.6
2015-Jul-05 17:31N 40°46' W 074°00'0 0.0
2015-Jul-05 16:31N 40°46' W 074°00'5 2.6
2015-Jul-05 14:33N 40°41' W 074°03'5 4.7
2015-Jul-05 13:30N 40°46' W 074°00'0 0.0
2015-Jul-05 03:23N 40°46' W 074°00'3 4.1
2015-Jul-05 02:33N 40°43' W 074°01'3 2.8
2015-Jul-05 01:33N 40°44' W 073°58'0 0.0
2015-Jul-05 00:33N 40°44' W 073°58'0 0.0
2015-Jul-04 23:33N 40°44' W 073°58'1 0.5
2015-Jul-04 22:33N 40°43' W 073°58'4 4.0
2015-Jul-04 21:33N 40°41' W 074°03'5 4.9
2015-Jul-04 20:32N 40°46' W 074°00'0 0.0
2015-Jul-04 19:32N 40°46' W 074°00'0 0.0
2015-Jul-04 18:32N 40°46' W 074°00'0 0.0
2015-Jul-04 17:32N 40°46' W 074°00'0 0.0
2015-Jul-04 16:33N 40°46' W 074°00'5 5.0
2015-Jul-04 15:33N 40°41' W 074°03'5 4.8
2015-Jul-04 14:31N 40°46' W 074°00'0 0.0
2015-Jul-04 04:09N 40°46' W 074°00'3 5.8
2015-Jul-04 03:34N 40°43' W 074°01'1 1.1
2015-Jul-04 02:34N 40°42' W 074°02'4 4.4
2015-Jul-04 01:33N 40°46' W 074°00'0 0.0
2015-Jul-04 00:33N 40°46' W 074°00'0 0.0
2015-Jul-03 23:27N 40°46' W 074°00'0 0.0
2015-Jul-03 22:33N 40°46' W 074°00'0 0.0
2015-Jul-03 21:33N 40°46' W 074°00'0 0.0
2015-Jul-03 20:33N 40°46' W 074°00'1 1.4
2015-Jul-03 19:33N 40°45' W 074°01'1 1.4
2015-Jul-03 18:34N 40°46' W 074°00'0 0.0
2015-Jul-03 17:31N 40°46' W 074°00'1 0.7
2015-Jul-03 16:34N 40°45' W 074°01'4 4.4
2015-Jul-03 15:33N 40°41' W 074°03'5 4.9
2015-Jul-03 14:31N 40°46' W 074°00'0 0.0
2015-Jul-03 13:28N 40°46' W 074°00'3 0.2
2015-Jul-03 00:33N 40°43' W 074°02'2 2.4
2015-Jul-02 23:33N 40°43' W 073°58'3 3.4
2015-Jul-02 22:32N 40°46' W 074°00'0 0.0
2015-Jul-02 21:32N 40°46' W 074°00'2 2.5
2015-Jul-02 20:33N 40°44' W 073°58'2 2.4
2015-Jul-02 19:33N 40°46' W 074°00'1 1.0
2015-Jul-02 18:34N 40°45' W 074°01'4 4.0
2015-Jul-02 17:34N 40°41' W 074°02'5 4.8
2015-Jul-02 16:31N 40°46' W 074°00'0 0.1
2015-Jul-02 15:34N 40°46' W 074°00'0 0.0
2015-Jun-30 20:32N 40°46' W 074°00'4 3.9
2015-Jun-30 19:27N 40°49' W 073°56'910.1
2015-Jun-30 18:33N 40°41' W 074°03'5 5.1
2015-Jun-30 17:34N 40°46' W 074°00'0 0.0
2015-Jun-30 16:34N 40°46' W 074°00'2 1.5
2015-Jun-30 15:09N 40°46' W 073°57'610.1
2015-Jun-30 14:33N 40°41' W 074°03'5 4.8
2015-Jun-30 13:30N 40°46' W 074°00'1 0.0
2015-Jun-29 21:34N 40°45' W 074°01'1 0.8
2015-Jun-29 20:33N 40°46' W 074°00'0 0.0
2015-Jun-29 19:31N 40°46' W 074°00'0 0.0
2015-Jun-29 18:33N 40°46' W 074°00'2 1.7
2015-Jun-29 17:10N 40°46' W 073°57'610.3
2015-Jun-29 16:33N 40°41' W 074°03'5 4.7
2015-Jun-29 15:31N 40°46' W 074°00'5 5.1
2015-Jun-29 14:33N 40°41' W 074°03'5 4.9
2015-Jun-29 13:33N 40°46' W 074°00'3 0.2
2015-Jun-29 00:33N 40°43' W 074°01'2 1.6
2015-Jun-28 23:34N 40°42' W 073°60'4 3.5
2015-Jun-28 22:32N 40°46' W 074°00'0 0.0
2015-Jun-28 21:29N 40°46' W 074°00'3 3.6
2015-Jun-28 20:33N 40°43' W 073°59'3 3.4
2015-Jun-28 19:33N 40°46' W 074°00'0 0.0
2015-Jun-28 18:33N 40°46' W 074°00'5 4.7
2015-Jun-28 17:33N 40°41' W 074°02'5 0.4
2015-Jun-28 05:04N 40°46' W 074°00'0 0.0
2015-Jun-28 04:33N 40°46' W 074°00'1 1.1
2015-Jun-28 03:33N 40°45' W 074°01'3 2.7
2015-Jun-28 02:34N 40°42' W 073°59'2 2.3
2015-Jun-28 01:33N 40°44' W 074°01'2 1.8
2015-Jun-28 00:32N 40°46' W 074°00'0 0.0
2015-Jun-27 23:32N 40°46' W 074°00'0 0.0
2015-Jun-27 22:32N 40°46' W 074°00'0 0.0
2015-Jun-27 21:32N 40°46' W 074°00'0 0.0
2015-Jun-27 20:33N 40°46' W 074°00'6 5.3
2015-Jun-27 19:28N 40°50' W 073°56'1011.2
2015-Jun-27 18:33N 40°41' W 074°02'5 4.6
2015-Jun-27 17:32N 40°46' W 074°00'0 0.0
2015-Jun-27 16:32N 40°46' W 074°00'3 2.5
2015-Jun-27 15:15N 40°47' W 073°56'710.7
2015-Jun-27 14:33N 40°41' W 074°02'5 4.4
2015-Jun-27 13:28N 40°46' W 074°00'0 0.0
2015-Jun-26 01:31N 40°46' W 074°00'2 2.5
2015-Jun-26 00:34N 40°44' W 074°01'  

Dump ship's entire track history